Time;durP1;ratioP1;P1;durP2;ratioP2;P2;SDS_P1;SDS_P2;PMS_P1;PMS_P2;Temp;Humidity;BMP_temperature;BMP_pressure;BME280_temperature;BME280_humidity;BME280_pressure;Samples;Min_cycle;Max_cycle;Signal;HPM_P1;HPM_P2
2023/04/13 00:01:10;;;;;;;7.87;5.40;;;7.70;88.60;;;10.05;62.61;99755.97;5038376;28;20198;-62
2023/04/13 00:03:38;;;;;;;7.87;5.93;;;7.70;88.50;;;10.07;62.89;99753.97;5037985;28;20225;-62
2023/04/13 00:06:09;;;;;;;12.70;6.43;;;7.70;88.40;;;10.06;62.46;99757.59;5038075;28;20687;-63
2023/04/13 00:08:37;;;;;;;5.70;5.07;;;7.70;88.30;;;10.05;62.58;99751.53;5037321;28;20256;-65
2023/04/13 00:11:06;;;;;;;8.77;5.10;;;7.70;88.20;;;10.09;62.40;99738.81;5038845;28;20244;-63
2023/04/13 00:13:39;;;;;;;10.80;4.83;;;7.70;88.10;;;10.14;62.25;99733.81;5038472;28;20194;-63
2023/04/13 00:16:08;;;;;;;8.20;5.07;;;7.70;88.20;;;10.20;61.99;99733.00;5038611;28;20194;-64
2023/04/13 00:18:35;;;;;;;6.77;4.97;;;7.70;88.20;;;10.26;62.18;99716.47;5037011;28;20554;-61
2023/04/13 00:21:06;;;;;;;6.00;5.43;;;7.70;88.40;;;10.31;62.28;99719.31;5038370;28;20248;-60
2023/04/13 00:23:34;;;;;;;5.60;4.60;;;7.70;88.60;;;10.37;62.15;99718.50;5038214;28;20910;-64
2023/04/13 00:26:02;;;;;;;6.20;5.60;;;7.70;88.50;;;10.43;62.44;99717.72;5038899;28;20194;-61
2023/04/13 00:28:30;;;;;;;8.87;5.63;;;7.80;89.00;;;10.48;61.66;99720.56;5039364;28;20198;-62
2023/04/13 00:30:57;;;;;;;5.77;5.17;;;7.80;88.40;;;10.51;61.99;99719.34;5037960;28;20598;-62
2023/04/13 00:33:24;;;;;;;7.53;5.00;;;7.90;88.20;;;10.54;61.30;99717.13;5037179;28;20186;-63
2023/04/13 00:35:51;;;;;;;10.27;5.20;;;7.90;88.00;;;10.55;60.99;99710.88;5052890;28;20214;-63
2023/04/13 00:38:18;;;;;;;8.33;5.33;;;7.90;87.70;;;10.57;61.10;99705.41;5037746;28;20225;-62
2023/04/13 00:40:45;;;;;;;7.77;5.13;;;7.90;87.40;;;10.56;61.03;99709.84;5036148;28;20222;-61
2023/04/13 00:43:12;;;;;;;9.20;5.67;;;7.90;87.20;;;10.52;60.32;99698.09;5036220;28;20195;-64
2023/04/13 00:45:41;;;;;;;8.13;5.37;;;7.90;86.70;;;10.48;60.34;99694.25;5035903;28;20215;-62
2023/04/13 00:48:09;;;;;;;7.03;5.20;;;7.90;86.50;;;10.44;60.62;99700.91;5036509;28;20675;-62
2023/04/13 00:50:38;;;;;;;7.83;5.07;;;7.80;86.30;;;10.37;59.95;99701.91;5036020;28;20244;-61
2023/04/13 00:53:06;;;;;;;8.00;5.33;;;7.80;86.10;;;10.29;60.19;99699.47;5036037;28;20240;-62
2023/04/13 00:55:38;;;;;;;7.50;5.23;;;7.70;85.90;;;10.23;60.70;99692.34;5050528;28;20634;-60
2023/04/13 00:58:06;;;;;;;6.70;5.17;;;7.70;86.10;;;10.16;60.46;99685.28;5036336;28;20597;-61
2023/04/13 01:00:37;;;;;;;6.40;5.03;;;7.70;86.20;;;10.14;60.67;99681.22;5035857;28;20236;-62
2023/04/13 01:03:06;;;;;;;6.30;5.17;;;7.60;86.20;;;10.12;60.90;99684.06;5036506;28;20190;-64
2023/04/13 01:05:42;;;;;;;5.53;4.23;;;7.60;86.70;;;10.12;60.70;99694.56;5035721;28;20221;-63
2023/04/13 01:08:21;;;;;;;5.30;4.70;;;7.60;86.60;;;10.07;60.64;99683.81;5036108;28;20166;-64
2023/04/13 01:10:57;;;;;;;5.67;5.07;;;7.60;86.40;;;10.07;60.93;99688.25;5035891;28;20197;-61
2023/04/13 01:13:33;;;;;;;5.40;4.53;;;7.60;86.50;;;10.08;60.72;99676.69;5035561;28;20217;-61
2023/04/13 01:16:05;;;;;;;8.53;5.17;;;7.50;86.40;;;10.08;60.59;99676.69;5015562;28;20183;-62
2023/04/13 01:18:39;;;;;;;7.47;4.83;;;7.50;86.50;;;10.07;60.50;99675.91;5016156;28;20540;-62
2023/04/13 01:21:13;;;;;;;8.60;5.40;;;7.50;87.30;;;10.12;60.71;99672.72;5028948;28;20285;-62
2023/04/13 01:23:57;;;;;;;7.47;5.33;;;7.50;86.80;;;10.08;60.68;99661.75;5034938;28;20532;-62
2023/04/13 01:26:35;;;;;;;7.07;4.67;;;7.50;86.90;;;10.14;60.27;99665.44;5035379;28;20195;-61
2023/04/13 01:29:05;;;;;;;6.37;4.63;;;7.60;86.90;;;10.16;60.53;99671.31;5035641;28;20205;-63
2023/04/13 01:31:34;;;;;;;6.07;4.63;;;7.60;86.70;;;10.16;60.88;99658.16;5035309;28;20190;-63
2023/04/13 01:34:02;;;;;;;6.13;5.23;;;7.60;86.60;;;10.19;60.90;99652.53;5034961;28;20264;-62
2023/04/13 01:36:32;;;;;;;7.03;5.03;;;7.60;87.10;;;10.21;60.44;99661.00;5035030;28;20198;-65
2023/04/13 01:38:59;;;;;;;6.73;4.93;;;7.60;87.20;;;10.22;60.17;99652.13;5000848;28;1003482;-65
2023/04/13 01:41:26;;;;;;;7.23;5.73;;;7.60;86.70;;;10.24;60.22;99654.56;5036306;28;20195;-65
2023/04/13 01:43:53;;;;;;;6.83;5.43;;;7.60;86.10;;;10.20;60.42;99656.75;5035866;28;20218;-64
2023/04/13 01:46:26;;;;;;;6.37;4.93;;;7.60;85.90;;;10.16;60.42;99650.28;5036118;28;20542;-63
2023/04/13 01:48:59;;;;;;;7.10;6.00;;;7.60;86.00;;;10.12;60.29;99651.69;5036332;28;20632;-66
2023/04/13 01:51:31;;;;;;;7.07;5.97;;;7.60;85.90;;;10.09;59.95;99657.31;5036275;28;20190;-65
2023/04/13 01:54:06;;;;;;;7.83;5.77;;;7.60;85.60;;;10.04;59.43;99657.09;5035662;28;20214;-65
2023/04/13 01:56:35;;;;;;;8.30;5.53;;;7.50;85.40;;;9.99;60.49;99647.16;5036131;28;20174;-62
2023/04/13 01:59:02;;;;;;;6.67;5.47;;;7.50;85.50;;;9.98;60.26;99644.75;5036044;28;20206;-62
2023/04/13 02:01:30;;;;;;;5.13;4.50;;;7.40;85.70;;;10.02;60.33;99656.47;5036283;28;20210;-62
2023/04/13 02:03:57;;;;;;;9.90;5.20;;;7.50;86.60;;;10.08;61.02;99645.97;5036490;28;20210;-64
2023/04/13 02:06:25;;;;;;;8.33;5.00;;;7.50;87.50;;;10.15;60.21;99646.00;5037786;28;20210;-63
2023/04/13 02:08:52;;;;;;;7.63;5.90;;;7.50;86.60;;;10.19;60.99;99652.53;5037336;28;20671;-61
2023/04/13 02:11:19;;;;;;;10.03;5.77;;;7.60;86.90;;;10.23;60.12;99648.47;5034098;28;20200;-59
2023/04/13 02:13:46;;;;;;;7.97;5.93;;;7.60;86.40;;;10.27;60.05;99654.16;5033942;28;20634;-60
2023/04/13 02:16:14;;;;;;;6.23;5.60;;;7.60;86.00;;;10.24;59.28;99650.09;5035229;28;20195;-61
2023/04/13 02:18:42;;;;;;;6.83;6.13;;;7.70;85.50;;;10.20;59.47;99648.88;5035276;28;20198;-61
2023/04/13 02:21:10;;;;;;;6.63;5.80;;;7.70;85.20;;;10.18;59.72;99651.69;5035213;28;20214;-61
2023/04/13 02:23:39;;;;;;;6.83;5.70;;;7.60;85.10;;;10.18;59.76;99651.69;5034174;28;20537;-62
2023/04/13 02:26:07;;;;;;;7.60;5.87;;;7.60;85.20;;;10.19;59.76;99657.78;5034814;28;20197;-63
2023/04/13 02:28:34;;;;;;;8.07;6.67;;;7.60;85.70;;;10.20;59.87;99651.50;5034234;28;20194;-61
2023/04/13 02:31:04;;;;;;;9.20;6.53;;;7.60;85.60;;;10.20;59.35;99651.50;5034904;28;20187;-62
2023/04/13 02:33:32;;;;;;;8.50;6.77;;;7.60;85.60;;;10.15;60.12;99646.00;5033744;28;20195;-62
2023/04/13 02:36:02;;;;;;;7.80;6.53;;;7.60;85.40;;;10.13;59.84;99642.78;5034927;28;20190;-60
2023/04/13 02:38:30;;;;;;;7.00;6.00;;;7.60;85.40;;;10.13;59.88;99634.91;5034505;28;20226;-63
2023/04/13 02:40:59;;;;;;;9.43;7.00;;;7.60;85.50;;;10.18;59.89;99640.38;5032989;28;20218;-62
2023/04/13 02:43:27;;;;;;;9.43;6.10;;;7.60;85.60;;;10.18;60.25;99645.63;5033760;28;20202;-63
2023/04/13 02:45:56;;;;;;;7.57;6.53;;;7.60;85.50;;;10.17;59.42;99641.41;5034211;28;20698;-63
2023/04/13 02:48:24;;;;;;;10.30;7.23;;;7.60;85.50;;;10.15;60.17;99635.50;5032636;28;20551;-63
2023/04/13 02:50:52;;;;;;;7.73;6.87;;;7.60;85.50;;;10.17;60.34;99644.03;5034044;28;20199;-64
2023/04/13 02:53:21;;;;;;;7.83;6.40;;;7.60;85.60;;;10.17;59.51;99644.03;5033123;28;20190;-63
2023/04/13 02:55:49;;;;;;;6.97;6.27;;;7.60;85.40;;;10.17;60.09;99644.03;5033255;28;20317;-63
2023/04/13 02:58:16;;;;;;;8.03;6.60;;;7.60;85.30;;;10.16;59.73;99634.50;5033921;28;20205;-62
2023/04/13 03:00:43;;;;;;;7.40;6.33;;;7.60;85.30;;;10.15;60.09;99632.88;5034161;28;20210;-62
2023/04/13 03:03:10;;;;;;;7.17;5.73;;;7.60;85.30;;;10.20;60.11;99636.53;5033772;28;20190;-61
2023/04/13 03:05:37;;;;;;;6.43;5.80;;;7.70;85.40;;;10.22;59.78;99638.16;5033904;28;20214;-63
2023/04/13 03:08:05;;;;;;;7.13;5.70;;;7.60;85.20;;;10.23;59.69;99637.97;5032663;28;20214;-61
2023/04/13 03:10:33;;;;;;;8.77;5.33;;;7.70;85.20;;;10.30;59.67;99632.69;5033640;28;20186;-62
2023/04/13 03:13:01;;;;;;;6.73;5.20;;;7.70;85.20;;;10.35;59.26;99635.53;5033635;28;20217;-62
2023/04/13 03:15:29;;;;;;;5.40;4.87;;;7.80;85.10;;;10.42;58.97;99636.38;5033656;28;20218;-60
2023/04/13 03:17:58;;;;;;;6.17;4.73;;;7.80;85.00;;;10.51;59.30;99640.41;5033942;28;20253;-63
2023/04/13 03:20:27;;;;;;;8.43;5.90;;;7.80;84.70;;;10.52;59.13;99637.59;5033918;28;20217;-62
2023/04/13 03:22:56;;;;;;;7.50;5.50;;;7.90;84.70;;;10.50;59.19;99631.75;5033979;28;20187;-61
2023/04/13 03:25:22;;;;;;;7.23;5.60;;;7.90;84.30;;;10.55;58.91;99636.41;5033311;28;20206;-63
2023/04/13 03:27:51;;;;;;;8.33;5.67;;;8.00;84.40;;;10.57;59.01;99627.28;5033747;28;20229;-63
2023/04/13 03:30:18;;;;;;;7.40;5.07;;;8.00;84.20;;;10.60;58.44;99631.34;5033854;28;20264;-61
2023/04/13 03:32:45;;;;;;;6.43;4.97;;;8.00;84.00;;;10.63;59.01;99623.84;5034256;28;20213;-59
2023/04/13 03:35:12;;;;;;;7.10;5.43;;;8.10;84.20;;;10.71;58.84;99625.47;5035418;28;20578;-61
2023/04/13 03:37:41;;;;;;;7.77;5.23;;;8.10;84.20;;;10.76;58.50;99623.84;5033794;28;20655;-61
2023/04/13 03:40:10;;;;;;;7.23;5.73;;;8.10;84.00;;;10.79;58.63;99628.69;5033933;28;20214;-62
2023/04/13 03:42:37;;;;;;;6.60;5.07;;;8.20;83.80;;;10.75;58.23;99622.22;5033893;28;20244;-64
2023/04/13 03:45:07;;;;;;;7.67;5.60;;;8.20;83.50;;;10.80;58.63;99624.25;5032956;28;20214;-64
2023/04/13 03:47:34;;;;;;;6.53;5.37;;;8.20;83.50;;;10.84;57.89;99618.34;5033996;28;20199;-63
2023/04/13 03:50:02;;;;;;;6.57;4.67;;;8.20;83.50;;;10.83;57.52;99632.56;5033100;28;20265;-62
2023/04/13 03:52:30;;;;;;;6.70;4.57;;;8.20;83.20;;;10.82;57.99;99627.47;5033765;28;20248;-62
2023/04/13 03:54:57;;;;;;;5.33;4.83;;;8.30;83.30;;;10.86;58.57;99634.75;5033812;28;20221;-60
2023/04/13 03:57:24;;;;;;;8.70;4.90;;;8.30;83.50;;;10.80;58.62;99626.88;5016114;28;20535;-63
2023/04/13 03:59:51;;;;;;;4.90;4.23;;;8.30;83.60;;;10.83;58.37;99629.09;5034219;28;20260;-62
2023/04/13 04:02:19;;;;;;;4.33;3.93;;;8.30;83.60;;;10.84;58.37;99623.63;5049138;28;20194;-64
2023/04/13 04:04:46;;;;;;;6.57;4.03;;;8.30;83.70;;;10.86;58.69;99628.69;5033020;28;20237;-63
2023/04/13 04:07:13;;;;;;;4.30;3.83;;;8.30;83.80;;;10.87;58.61;99622.41;5033854;28;20190;-62
2023/04/13 04:09:41;;;;;;;5.13;3.97;;;8.30;84.10;;;10.87;58.71;99611.88;5034107;28;20191;-64
2023/04/13 04:12:08;;;;;;;5.80;3.90;;;8.30;84.10;;;10.89;58.50;99613.28;5033594;28;20206;-64
2023/04/13 04:14:35;;;;;;;4.07;3.70;;;8.30;84.10;;;10.93;59.00;99618.16;5033317;28;20288;-62
2023/04/13 04:17:02;;;;;;;4.93;3.47;;;8.40;84.60;;;10.93;58.60;99611.06;5034215;28;20198;-64
2023/04/13 04:19:30;;;;;;;4.37;3.87;;;8.40;84.50;;;10.95;59.38;99610.88;5033612;28;20201;-60
2023/04/13 04:22:03;;;;;;;3.70;3.30;;;8.40;84.60;;;10.99;58.31;99618.16;5033602;28;20206;-63
2023/04/13 04:24:30;;;;;;;4.77;2.97;;;8.40;84.70;;;11.01;59.34;99610.84;5033825;28;20221;-64
2023/04/13 04:26:59;;;;;;;5.70;3.57;;;8.40;84.70;;;11.02;59.06;99611.66;5033057;28;20233;-63
2023/04/13 04:29:32;;;;;;;4.20;3.80;;;8.40;84.70;;;11.01;58.75;99599.50;5032552;28;20192;-60
2023/04/13 04:32:00;;;;;;;3.57;3.27;;;8.50;84.80;;;11.05;58.80;99606.00;5033702;28;20179;-62
2023/04/13 04:34:27;;;;;;;3.30;3.00;;;8.50;84.70;;;11.05;59.24;99600.72;5036987;28;20210;-62
2023/04/13 04:36:56;;;;;;;3.97;3.27;;;8.50;84.60;;;11.04;58.74;99604.38;5037489;28;20205;-65
2023/04/13 04:39:31;;;;;;;3.97;2.70;;;8.50;84.60;;;11.07;59.06;99603.97;5035886;28;20205;-62
2023/04/13 04:42:04;;;;;;;3.53;3.03;;;8.50;84.60;;;11.09;59.22;99601.94;5036514;28;20229;-63
2023/04/13 04:44:31;;;;;;;4.00;2.80;;;8.50;84.60;;;11.15;58.75;99601.91;5036126;28;20225;-63
2023/04/13 04:46:59;;;;;;;4.60;2.90;;;8.60;84.80;;;11.14;58.99;99599.50;5037009;28;20559;-66
2023/04/13 04:49:27;;;;;;;3.70;2.60;;;8.60;84.70;;;11.05;58.68;99598.09;5035263;28;20611;-64
2023/04/13 04:51:56;;;;;;;3.20;2.50;;;8.60;84.40;;;11.08;58.79;99605.59;5036870;28;20194;-61
2023/04/13 04:54:24;;;;;;;4.13;2.40;;;8.60;84.50;;;11.12;59.29;99604.16;5036694;28;20219;-65
2023/04/13 04:56:52;;;;;;;5.00;2.87;;;8.60;84.40;;;11.18;59.09;99603.31;5037139;28;20537;-63
2023/04/13 04:59:19;;;;;;;3.13;2.63;;;8.60;84.40;;;11.21;58.64;99610.81;5036928;28;20200;-63
2023/04/13 05:01:48;;;;;;;2.77;2.43;;;8.70;84.50;;;11.20;58.54;99617.09;5037871;28;20217;-64
2023/04/13 05:04:16;;;;;;;2.97;2.33;;;8.70;84.40;;;11.28;58.51;99606.34;5038239;28;20357;-64
2023/04/13 05:06:43;;;;;;;3.60;2.50;;;8.70;84.20;;;11.34;58.49;99621.31;5039115;28;20225;-63
2023/04/13 05:09:13;;;;;;;3.20;2.57;;;8.70;84.30;;;11.37;58.29;99615.63;5036546;28;20202;-62
2023/04/13 05:11:40;;;;;;;3.93;2.90;;;8.80;84.40;;;11.42;58.78;99615.81;5052292;28;20183;-63
2023/04/13 05:14:07;;;;;;;3.63;2.77;;;8.80;84.40;;;11.47;58.74;99621.28;5035438;28;20289;-61
2023/04/13 05:16:34;;;;;;;4.57;2.53;;;8.80;84.60;;;11.52;58.82;99619.66;5035504;28;20550;-61
2023/04/13 05:19:04;;;;;;;3.27;2.30;;;8.90;84.50;;;11.52;58.61;99629.38;5051575;28;20199;-64
2023/04/13 05:21:31;;;;;;;2.90;2.60;;;8.90;84.60;;;11.56;58.70;99627.94;5035669;28;20261;-62
2023/04/13 05:23:58;;;;;;;4.47;2.33;;;8.90;84.60;;;11.59;58.71;99619.63;5035841;28;20262;-62
2023/04/13 05:26:29;;;;;;;4.33;2.70;;;9.00;84.80;;;11.61;59.09;99624.66;5034869;28;20206;-64
2023/04/13 05:28:56;;;;;;;4.20;2.30;;;9.00;84.80;;;11.62;58.34;99632.38;5036117;28;20197;-65
2023/04/13 05:31:23;;;;;;;3.33;2.43;;;9.00;84.80;;;11.52;59.12;99632.00;5035475;28;20190;-62
2023/04/13 05:33:50;;;;;;;4.03;2.27;;;9.00;84.60;;;11.55;58.82;99634.25;5035042;28;20189;-63
2023/04/13 05:36:17;;;;;;;3.40;2.40;;;9.00;84.80;;;11.57;58.97;99637.47;5033493;28;20205;-62
2023/04/13 05:38:44;;;;;;;2.30;2.10;;;9.10;84.90;;;11.65;58.94;99629.31;5034165;28;20230;-62
2023/04/13 05:41:11;;;;;;;3.27;2.40;;;9.10;84.90;;;11.60;59.05;99644.94;5035366;28;20211;-61
2023/04/13 05:43:40;;;;;;;4.17;2.40;;;9.10;85.00;;;11.60;59.41;99647.56;5034924;28;20209;-63
2023/04/13 05:46:10;;;;;;;4.53;2.60;;;9.10;85.00;;;11.61;59.20;99648.38;5028102;28;20201;-63
2023/04/13 05:48:37;;;;;;;4.33;2.60;;;9.10;85.10;;;11.57;59.65;99650.66;5035479;28;20269;-63
2023/04/13 05:51:05;;;;;;;4.07;2.73;;;9.10;85.20;;;11.59;59.78;99651.25;5035341;28;20260;-62
2023/04/13 05:53:32;;;;;;;2.17;1.97;;;9.10;85.40;;;11.58;59.83;99654.88;5034891;28;20201;-64
2023/04/13 05:55:59;;;;;;;4.00;2.17;;;9.10;85.60;;;11.51;59.98;99664.63;5050958;28;20680;-64
2023/04/13 05:58:26;;;;;;;4.10;2.40;;;9.10;85.80;;;11.43;60.26;99663.03;5035814;28;20194;-64
2023/04/13 06:00:54;;;;;;;2.03;1.93;;;9.10;86.00;;;11.40;60.80;99663.47;5036376;28;20692;-65
2023/04/13 06:03:21;;;;;;;2.47;1.83;;;9.10;86.10;;;11.39;61.17;99666.28;5036137;28;20647;-65
2023/04/13 06:05:49;;;;;;;6.47;2.77;;;9.10;86.40;;;11.30;61.33;99667.53;5035456;28;20305;-63
2023/04/13 06:08:16;;;;;;;2.53;1.90;;;9.00;86.60;;;11.27;61.71;99674.00;5035035;28;20294;-64
2023/04/13 06:10:46;;;;;;;3.40;2.60;;;9.00;86.70;;;11.32;61.52;99682.09;5034835;28;20194;-64
2023/04/13 06:13:13;;;;;;;4.20;2.50;;;9.00;87.10;;;11.25;61.31;99680.50;5035460;28;20226;-66
2023/04/13 06:15:40;;;;;;;3.57;2.03;;;9.00;87.20;;;11.16;61.72;99682.53;5032902;28;20233;-62
2023/04/13 06:18:08;;;;;;;2.20;2.00;;;9.00;87.40;;;11.20;61.81;99677.66;5034633;28;20186;-64
2023/04/13 06:20:35;;;;;;;4.43;2.10;;;9.00;87.50;;;11.19;62.06;99681.31;5034482;28;20195;-63
2023/04/13 06:23:02;;;;;;;3.23;2.10;;;9.00;87.70;;;11.24;62.45;99687.59;5033887;28;20214;-63
2023/04/13 06:25:30;;;;;;;3.77;2.30;;;9.00;87.70;;;11.25;62.52;99688.41;5034411;28;20208;-65
2023/04/13 06:27:59;;;;;;;2.43;2.03;;;9.00;87.60;;;11.36;62.22;99693.84;5034882;28;20202;-62
2023/04/13 06:30:26;;;;;;;3.07;2.10;;;9.10;87.50;;;11.55;61.58;99697.47;5033663;28;20297;-64
2023/04/13 06:32:54;;;;;;;2.93;1.90;;;9.10;87.60;;;11.62;60.84;99703.53;5034367;28;20204;-65
2023/04/13 06:35:22;;;;;;;5.10;1.70;;;9.10;87.30;;;11.58;60.98;99702.31;5032170;28;20272;-62
2023/04/13 06:37:50;;;;;;;2.47;1.70;;;9.20;87.10;;;11.67;61.11;99700.28;5034707;28;20279;-65
2023/04/13 06:40:19;;;;;;;3.57;1.90;;;9.20;87.10;;;11.75;61.24;99700.88;5035475;28;20222;-63
2023/04/13 06:42:46;;;;;;;3.03;1.83;;;9.30;87.20;;;11.83;60.81;99703.31;5033572;28;20318;-65
2023/04/13 06:45:13;;;;;;;2.47;1.67;;;9.30;87.20;;;11.85;60.94;99708.38;5034184;28;20219;-64
2023/04/13 06:47:40;;;;;;;1.57;1.30;;;9.40;87.10;;;11.80;61.17;99711.63;5033688;28;20523;-65
2023/04/13 06:50:10;;;;;;;3.40;1.73;;;9.40;87.10;;;11.81;61.23;99707.16;5033119;28;20210;-64
2023/04/13 06:52:42;;;;;;;2.00;1.80;;;9.40;87.10;;;11.85;61.31;99711.00;5034481;28;20190;-62
2023/04/13 06:55:09;;;;;;;1.90;1.70;;;9.50;87.20;;;11.98;60.80;99713.59;5033536;28;20222;-63
2023/04/13 06:57:36;;;;;;;2.83;2.00;;;9.50;87.20;;;12.19;60.88;99716.72;5032909;28;20246;-64
2023/04/13 07:00:06;;;;;;;2.77;2.00;;;9.60;87.50;;;12.38;59.88;99714.22;5020749;28;20203;-64
2023/04/13 07:02:52;;;;;;;2.80;2.07;;;9.70;87.10;;;12.46;59.66;99727.16;5027171;28;20200;-64
2023/04/13 07:05:19;;;;;;;2.60;1.80;;;9.80;86.40;;;12.46;59.73;99737.72;5013706;28;20284;-63
2023/04/13 07:07:48;;;;;;;4.10;2.00;;;9.90;86.30;;;12.47;59.54;99728.78;5013774;28;20195;-62
2023/04/13 07:10:15;;;;;;;2.90;2.00;;;10.00;84.80;;;12.56;59.18;99738.06;5018935;28;20204;-60
2023/04/13 07:12:42;;;;;;;3.97;2.43;;;10.00;84.50;;;12.67;59.01;99740.06;5048974;28;20244;-63
2023/04/13 07:15:09;;;;;;;3.30;2.10;;;10.10;84.40;;;12.84;59.18;99741.13;5033136;28;20226;-62
2023/04/13 07:17:36;;;;;;;2.40;2.20;;;10.20;84.50;;;12.95;58.21;99742.28;5033564;28;20647;-64
2023/04/13 07:20:06;;;;;;;3.10;2.03;;;10.20;83.90;;;12.98;57.36;99742.66;5033100;28;20636;-64
2023/04/13 07:22:34;;;;;;;2.57;2.10;;;10.30;82.90;;;12.95;57.59;99743.13;5033529;28;20222;-64
2023/04/13 07:25:03;;;;;;;5.53;2.13;;;10.40;82.70;;;13.12;57.42;99754.00;5033172;28;20568;-64
2023/04/13 07:27:31;;;;;;;3.60;2.33;;;10.40;82.60;;;13.14;56.83;99751.94;5033476;28;20217;-63
2023/04/13 07:30:00;;;;;;;2.23;2.00;;;10.50;82.00;;;12.99;56.74;99754.84;5033574;28;20556;-64
2023/04/13 07:32:28;;;;;;;2.87;2.30;;;10.50;81.40;;;13.19;57.00;99763.47;5030910;28;20203;-66
2023/04/13 07:35:00;;;;;;;3.30;2.60;;;10.60;81.60;;;13.39;56.21;99756.19;5027943;28;20230;-65
2023/04/13 07:37:31;;;;;;;2.60;2.20;;;10.60;81.10;;;13.49;55.90;99769.72;5017403;28;20199;-65
2023/04/13 07:39:59;;;;;;;3.87;2.63;;;10.80;80.80;;;13.82;55.55;99782.63;5029612;28;20298;-66
2023/04/13 07:42:29;;;;;;;4.30;1.90;;;10.90;80.00;;;14.35;54.31;99777.59;5025190;28;20219;-65
2023/04/13 07:44:57;;;;;;;2.03;1.80;;;11.10;79.50;;;15.06;51.60;99779.47;5017010;28;20222;-68
2023/04/13 07:47:27;;;;;;;3.17;1.90;;;11.50;77.80;;;15.59;49.71;99781.06;5032176;28;20210;-66
2023/04/13 07:49:58;;;;;;;2.17;1.97;;;11.90;76.00;;;16.47;49.00;99778.16;5033166;28;20214;-64
2023/04/13 07:52:27;;;;;;;4.03;2.20;;;12.50;75.00;;;17.51;46.71;99790.09;5016589;28;20558;-65
2023/04/13 07:54:56;;;;;;;2.80;1.93;;;13.10;72.90;;;18.15;44.80;99804.63;5019316;28;20234;-66
2023/04/13 07:57:28;;;;;;;2.07;1.80;;;13.80;70.80;;;17.94;43.01;99805.41;5032642;28;20206;-66
2023/04/13 07:59:59;;;;;;;2.97;1.87;;;14.20;66.60;;;17.72;43.02;99812.53;5032764;28;20203;-66
2023/04/13 08:02:27;;;;;;;2.40;1.60;;;14.30;65.90;;;18.02;43.89;99813.78;5022770;28;20221;-66
2023/04/13 08:04:55;;;;;;;4.87;1.90;;;14.40;65.50;;;18.41;42.06;99817.22;5017534;28;20245;-66
2023/04/13 08:07:36;;;;;;;2.37;1.70;;;14.60;64.10;;;18.83;40.67;99815.59;5014808;28;20206;-64
2023/04/13 08:10:25;;;;;;;2.30;1.60;;;14.80;62.70;;;19.17;41.47;99812.72;5042520;28;20194;-68
2023/04/13 08:13:19;;;;;;;2.33;1.70;;;15.20;64.10;;;19.20;40.01;99831.72;5038346;28;20206;-66
2023/04/13 08:16:33;;;;;;;3.03;1.80;;;15.40;61.10;;;18.84;40.30;99827.88;5030933;28;20249;-67
2023/04/13 08:19:23;;;;;;;3.10;1.97;;;15.50;60.20;;;19.17;39.88;99836.72;5003079;28;20214;-68
2023/04/13 08:22:11;;;;;;;2.77;1.73;;;15.50;60.30;;;19.07;40.44;99842.78;5024497;28;20252;-66
2023/04/13 08:25:11;;;;;;;2.43;2.10;;;15.60;60.50;;;18.61;40.42;99849.47;5018918;28;20214;-66
2023/04/13 08:28:04;;;;;;;2.80;2.17;;;15.50;59.90;;;18.06;40.48;99851.38;5016190;28;20214;-67
2023/04/13 08:31:22;;;;;;;2.83;1.70;;;15.30;59.00;;;17.57;42.26;99847.69;4978091;28;20607;-67
2023/04/13 08:34:01;;;;;;;3.97;2.17;;;14.90;59.90;;;17.31;42.18;99865.06;4982857;28;20334;-66
2023/04/13 08:37:05;;;;;;;;;;;;;;;;;;;;;
2023/04/13 08:40:12;;;;;;;1.87;1.77;;;14.40;59.90;;;16.28;43.40;99870.44;5001906;28;20212;-67
2023/04/13 08:43:28;;;;;;;3.03;1.87;;;14.00;61.10;;;16.03;44.67;99869.09;4986007;28;20312;-67
2023/04/13 08:46:07;;;;;;;3.23;1.63;;;13.80;62.00;;;15.74;44.92;99877.94;4998618;28;20207;-65
2023/04/13 08:48:41;;;;;;;2.53;2.10;;;13.50;62.50;;;15.58;44.75;99882.91;4982697;28;20209;-65
2023/04/13 08:51:21;;;;;;;4.17;2.30;;;13.30;62.80;;;15.53;45.21;99887.28;4982794;28;20353;-66
2023/04/13 08:53:57;;;;;;;4.70;2.40;;;13.20;63.60;;;15.63;45.25;99882.22;5014105;28;20200;-64
2023/04/13 08:56:26;;;;;;;3.43;2.13;;;13.10;64.10;;;15.63;45.41;99882.22;5014743;28;20225;-65
2023/04/13 08:59:14;;;;;;;2.37;1.87;;;13.00;64.40;;;15.76;45.38;99889.94;5014027;28;20310;-62
2023/04/13 09:01:44;;;;;;;2.80;1.80;;;13.10;64.80;;;15.99;45.50;99905.91;5014042;28;20754;-63
2023/04/13 09:04:16;;;;;;;2.70;2.00;;;13.10;65.30;;;16.40;45.01;99909.50;5013650;28;20758;-63
2023/04/13 09:06:49;;;;;;;6.90;2.20;;;13.20;66.10;;;16.39;43.98;99900.72;5013854;28;20497;-62
2023/04/13 09:09:17;;;;;;;2.50;2.03;;;13.30;64.80;;;16.48;44.34;99895.84;5034003;28;20210;-65
2023/04/13 09:11:45;;;;;;;2.90;1.83;;;13.40;65.00;;;16.51;44.36;99906.84;5035440;28;20223;-65
2023/04/13 09:14:19;;;;;;;3.20;2.17;;;13.50;64.80;;;16.89;44.43;99908.94;5035292;28;20226;-63
2023/04/13 09:16:48;;;;;;;3.87;2.67;;;13.60;65.30;;;18.05;43.54;99908.34;5035927;28;20175;-62
2023/04/13 09:19:28;;;;;;;2.30;2.00;;;14.00;66.60;;;19.51;38.99;99902.22;5035196;28;20201;-63
2023/04/13 09:21:55;;;;;;;3.73;2.03;;;14.50;65.60;;;20.31;36.65;99906.56;5016370;28;20207;-64
2023/04/13 09:24:22;;;;;;;2.90;1.70;;;15.20;60.80;;;20.82;36.36;99908.44;5016381;28;20211;-64
2023/04/13 09:26:49;;;;;;;3.00;1.90;;;15.70;58.50;;;21.38;34.83;99912.91;5017382;28;20671;-63
2023/04/13 09:29:19;;;;;;;2.50;1.53;;;16.40;56.70;;;22.03;33.45;99908.69;5036186;28;20292;-63
2023/04/13 09:31:47;;;;;;;2.77;1.80;;;16.90;56.00;;;21.54;33.38;99924.44;5037105;28;20239;-65
2023/04/13 09:34:26;;;;;;;2.87;1.73;;;17.20;52.90;;;20.67;34.89;99932.44;5034373;28;20352;-63
2023/04/13 09:36:53;;;;;;;2.63;1.90;;;17.30;52.40;;;20.03;35.47;99921.88;5033866;28;20666;-63
2023/04/13 09:39:25;;;;;;;2.77;1.80;;;17.10;52.70;;;19.17;36.52;99932.78;5018092;28;20221;-62
2023/04/13 09:41:53;;;;;;;2.60;1.77;;;16.60;52.30;;;18.49;37.80;99926.09;5034919;28;20211;-62
2023/04/13 09:44:26;;;;;;;4.17;1.77;;;16.20;53.10;;;18.04;38.78;99939.50;5034777;28;20715;-63
2023/04/13 09:47:00;;;;;;;4.87;1.87;;;15.80;54.10;;;17.73;39.48;99952.56;5035275;28;20205;-62
2023/04/13 09:49:36;;;;;;;4.93;1.80;;;15.40;55.30;;;17.53;40.37;99948.50;5038089;28;20183;-62
2023/04/13 09:52:06;;;;;;;3.20;2.00;;;15.10;56.40;;;17.50;40.45;99943.63;5036180;28;20188;-62
2023/04/13 09:54:34;;;;;;;4.53;2.00;;;14.90;57.00;;;17.59;40.71;99958.19;5036103;28;20222;-64
2023/04/13 09:57:03;;;;;;;3.63;1.93;;;14.80;57.90;;;17.66;40.41;99957.25;5036783;28;20493;-63
2023/04/13 09:59:31;;;;;;;3.03;2.00;;;14.70;57.90;;;17.66;40.42;99958.06;5034592;28;20201;-64
2023/04/13 10:02:02;;;;;;;3.07;1.73;;;14.70;58.30;;;17.86;40.64;99961.06;5034752;28;20292;-64
2023/04/13 10:04:30;;;;;;;2.57;1.60;;;14.70;59.00;;;18.37;39.91;99973.31;5049402;28;20222;-62
2023/04/13 10:06:57;;;;;;;4.30;2.00;;;14.80;58.90;;;18.46;38.28;99960.41;5034410;28;20195;-65
2023/04/13 10:09:25;;;;;;;2.23;1.57;;;14.90;56.90;;;18.42;37.42;99972.59;5034725;28;20213;-64
2023/04/13 10:11:55;;;;;;;2.87;2.20;;;15.00;55.70;;;17.97;37.88;99975.34;5033826;28;20201;-64
2023/04/13 10:14:30;;;;;;;4.43;2.57;;;15.00;54.60;;;17.73;38.03;99969.38;5033953;28;20218;-63
2023/04/13 10:17:36;;;;;;;2.57;1.90;;;15.00;54.50;;;17.36;38.92;99978.75;5050600;28;20186;-62
2023/04/13 10:20:11;;;;;;;4.10;2.30;;;14.90;55.00;;;17.13;39.04;99976.97;5035040;28;20195;-64
2023/04/13 10:22:42;;;;;;;2.63;1.80;;;14.70;54.90;;;16.79;39.89;99988.47;5034459;28;20198;-63
2023/04/13 10:25:13;;;;;;;5.87;2.10;;;14.50;55.50;;;16.59;40.46;99991.50;5033925;28;20222;-64
2023/04/13 10:27:59;;;;;;;5.17;1.90;;;14.30;56.20;;;16.47;41.03;99995.19;5034021;28;20237;-64
2023/04/13 10:30:27;;;;;;;6.43;2.00;;;14.10;57.00;;;16.33;41.24;99999.88;5034094;28;20205;-64
2023/04/13 10:33:04;;;;;;;3.30;2.57;;;13.90;57.40;;;16.16;42.20;99999.75;5034052;28;20198;-64
2023/04/13 10:35:35;;;;;;;3.27;2.10;;;13.80;58.20;;;16.35;42.06;99997.84;5032461;28;20754;-64
2023/04/13 10:38:03;;;;;;;4.23;2.10;;;13.80;58.90;;;16.47;42.16;100000.50;5033200;28;20242;-65
2023/04/13 10:40:43;;;;;;;2.13;1.93;;;13.80;58.90;;;16.53;41.92;100000.41;5034339;28;20202;-63